sensor_id;sensor_type;location;lat;lon;timestamp;pressure;altitude;pressure_sealevel;temperature;humidity
25430;BME280;13360;48.152;-1.788;2023-04-10T00:01:23;101646.66;;;14.77;100.00
25430;BME280;13360;48.152;-1.788;2023-04-10T00:03:49;101648.91;;;14.75;100.00
25430;BME280;13360;48.152;-1.788;2023-04-10T00:06:14;101645.63;;;14.73;100.00
25430;BME280;13360;48.152;-1.788;2023-04-10T00:08:40;101653.94;;;14.73;100.00
25430;BME280;13360;48.152;-1.788;2023-04-10T00:11:05;101653.13;;;14.72;100.00
25430;BME280;13360;48.152;-1.788;2023-04-10T00:13:31;101647.88;;;14.71;100.00
25430;BME280;13360;48.152;-1.788;2023-04-10T00:15:56;101643.44;;;14.70;100.00
25430;BME280;13360;48.152;-1.788;2023-04-10T00:18:22;101659.00;;;14.71;100.00
25430;BME280;13360;48.152;-1.788;2023-04-10T00:20:47;101645.09;;;14.71;100.00
25430;BME280;13360;48.152;-1.788;2023-04-10T00:23:12;101645.63;;;14.73;100.00
25430;BME280;13360;48.152;-1.788;2023-04-10T00:25:38;101637.88;;;14.70;100.00
25430;BME280;13360;48.152;-1.788;2023-04-10T00:28:03;101656.00;;;14.67;100.00
25430;BME280;13360;48.152;-1.788;2023-04-10T00:30:28;101654.03;;;14.68;100.00
25430;BME280;13360;48.152;-1.788;2023-04-10T00:32:54;101655.69;;;14.69;100.00
25430;BME280;13360;48.152;-1.788;2023-04-10T00:35:19;101641.28;;;14.67;100.00
25430;BME280;13360;48.152;-1.788;2023-04-10T00:37:44;101651.03;;;14.64;100.00
25430;BME280;13360;48.152;-1.788;2023-04-10T00:40:10;101649.09;;;14.64;100.00
25430;BME280;13360;48.152;-1.788;2023-04-10T00:42:35;101643.22;;;14.66;100.00
25430;BME280;13360;48.152;-1.788;2023-04-10T00:45:01;101667.72;;;14.64;100.00
25430;BME280;13360;48.152;-1.788;2023-04-10T00:47:26;101664.13;;;14.63;100.00
25430;BME280;13360;48.152;-1.788;2023-04-10T00:49:52;101672.47;;;14.63;100.00
25430;BME280;13360;48.152;-1.788;2023-04-10T00:52:17;101663.91;;;14.60;100.00
25430;BME280;13360;48.152;-1.788;2023-04-10T00:54:42;101660.28;;;14.59;100.00
25430;BME280;13360;48.152;-1.788;2023-04-10T00:57:07;101653.09;;;14.58;100.00
25430;BME280;13360;48.152;-1.788;2023-04-10T00:59:33;101653.91;;;14.59;100.00
25430;BME280;13360;48.152;-1.788;2023-04-10T01:01:59;101651.13;;;14.59;100.00
25430;BME280;13360;48.152;-1.788;2023-04-10T01:04:24;101659.16;;;14.60;100.00
25430;BME280;13360;48.152;-1.788;2023-04-10T01:14:56;101658.09;;;14.56;100.00
25430;BME280;13360;48.152;-1.788;2023-04-10T01:20:01;101658.41;;;14.55;100.00
25430;BME280;13360;48.152;-1.788;2023-04-10T01:22:33;101653.97;;;14.54;100.00
25430;BME280;13360;48.152;-1.788;2023-04-10T01:30:16;101635.72;;;14.48;100.00
25430;BME280;13360;48.152;-1.788;2023-04-10T01:32:43;101634.91;;;14.47;100.00
25430;BME280;13360;48.152;-1.788;2023-04-10T01:35:08;101631.28;;;14.47;100.00
25430;BME280;13360;48.152;-1.788;2023-04-10T01:37:37;101647.94;;;14.28;100.00
25430;BME280;13360;48.152;-1.788;2023-04-10T01:40:07;101665.50;;;14.23;100.00
25430;BME280;13360;48.152;-1.788;2023-04-10T01:42:33;101670.25;;;14.23;100.00
25430;BME280;13360;48.152;-1.788;2023-04-10T01:45:02;101668.59;;;14.22;100.00
25430;BME280;13360;48.152;-1.788;2023-04-10T01:47:30;101683.38;;;14.17;100.00
25430;BME280;13360;48.152;-1.788;2023-04-10T01:49:56;101711.69;;;14.19;100.00
25430;BME280;13360;48.152;-1.788;2023-04-10T01:52:22;101723.94;;;14.18;100.00
25430;BME280;13360;48.152;-1.788;2023-04-10T01:54:49;101727.00;;;14.17;100.00
25430;BME280;13360;48.152;-1.788;2023-04-10T01:57:16;101732.56;;;14.17;100.00
25430;BME280;13360;48.152;-1.788;2023-04-10T01:59:41;101738.69;;;14.14;100.00
25430;BME280;13360;48.152;-1.788;2023-04-10T02:02:06;101754.53;;;14.13;100.00
25430;BME280;13360;48.152;-1.788;2023-04-10T02:04:32;101776.75;;;14.13;100.00
25430;BME280;13360;48.152;-1.788;2023-04-10T02:12:01;101814.81;;;14.13;100.00
25430;BME280;13360;48.152;-1.788;2023-04-10T02:14:28;101800.94;;;14.13;100.00
25430;BME280;13360;48.152;-1.788;2023-04-10T02:16:55;101830.66;;;14.12;100.00
25430;BME280;13360;48.152;-1.788;2023-04-10T02:19:21;101842.59;;;14.13;100.00
25430;BME280;13360;48.152;-1.788;2023-04-10T02:21:47;101860.41;;;14.12;100.00
25430;BME280;13360;48.152;-1.788;2023-04-10T02:24:13;101862.34;;;14.11;100.00
25430;BME280;13360;48.152;-1.788;2023-04-10T02:26:48;101869.03;;;14.10;100.00
25430;BME280;13360;48.152;-1.788;2023-04-10T02:29:13;101873.47;;;14.11;100.00
25430;BME280;13360;48.152;-1.788;2023-04-10T02:31:39;101883.75;;;14.11;100.00
25430;BME280;13360;48.152;-1.788;2023-04-10T02:34:04;101892.09;;;14.11;100.00
25430;BME280;13360;48.152;-1.788;2023-04-10T02:36:29;101877.66;;;14.09;100.00
25430;BME280;13360;48.152;-1.788;2023-04-10T02:38:55;101886.06;;;14.03;100.00
25430;BME280;13360;48.152;-1.788;2023-04-10T02:41:20;101928.25;;;14.06;100.00
25430;BME280;13360;48.152;-1.788;2023-04-10T02:43:46;101943.81;;;14.07;100.00
25430;BME280;13360;48.152;-1.788;2023-04-10T02:46:11;101949.34;;;14.07;100.00
25430;BME280;13360;48.152;-1.788;2023-04-10T02:48:36;101950.47;;;14.06;100.00
25430;BME280;13360;48.152;-1.788;2023-04-10T02:51:02;101954.09;;;14.06;100.00
25430;BME280;13360;48.152;-1.788;2023-04-10T02:53:27;101962.41;;;14.06;100.00
25430;BME280;13360;48.152;-1.788;2023-04-10T02:55:53;101961.88;;;14.04;100.00
25430;BME280;13360;48.152;-1.788;2023-04-10T02:58:19;101967.72;;;14.02;100.00
25430;BME280;13360;48.152;-1.788;2023-04-10T03:00:49;101973.59;;;14.01;100.00
25430;BME280;13360;48.152;-1.788;2023-04-10T03:03:15;101981.09;;;14.00;100.00
25430;BME280;13360;48.152;-1.788;2023-04-10T03:05:40;101987.75;;;13.99;100.00
25430;BME280;13360;48.152;-1.788;2023-04-10T03:08:05;101993.31;;;13.99;100.00
25430;BME280;13360;48.152;-1.788;2023-04-10T03:10:30;102011.09;;;13.98;100.00
25430;BME280;13360;48.152;-1.788;2023-04-10T03:12:56;102011.94;;;13.99;100.00
25430;BME280;13360;48.152;-1.788;2023-04-10T03:15:21;102025.00;;;13.98;100.00
25430;BME280;13360;48.152;-1.788;2023-04-10T03:17:46;102035.81;;;14.00;100.00
25430;BME280;13360;48.152;-1.788;2023-04-10T03:20:11;102046.94;;;13.95;100.00
25430;BME280;13360;48.152;-1.788;2023-04-10T03:22:37;102059.16;;;13.94;100.00
25430;BME280;13360;48.152;-1.788;2023-04-10T03:25:03;102076.13;;;13.92;100.00
25430;BME280;13360;48.152;-1.788;2023-04-10T03:27:29;102082.22;;;13.94;100.00
25430;BME280;13360;48.152;-1.788;2023-04-10T03:29:56;102101.94;;;13.93;100.00
25430;BME280;13360;48.152;-1.788;2023-04-10T03:32:21;102115.00;;;13.92;100.00
25430;BME280;13360;48.152;-1.788;2023-04-10T03:34:46;102129.72;;;13.93;100.00
25430;BME280;13360;48.152;-1.788;2023-04-10T03:37:11;102148.34;;;13.92;100.00
25430;BME280;13360;48.152;-1.788;2023-04-10T03:39:37;102165.84;;;13.93;100.00
25430;BME280;13360;48.152;-1.788;2023-04-10T03:42:02;102177.78;;;13.93;100.00
25430;BME280;13360;48.152;-1.788;2023-04-10T03:44:27;102187.22;;;13.92;100.00
25430;BME280;13360;48.152;-1.788;2023-04-10T03:46:52;102201.69;;;13.89;100.00
25430;BME280;13360;48.152;-1.788;2023-04-10T03:49:17;102231.13;;;13.90;100.00
25430;BME280;13360;48.152;-1.788;2023-04-10T03:51:43;102258.91;;;13.90;100.00
25430;BME280;13360;48.152;-1.788;2023-04-10T03:54:08;102273.06;;;13.89;100.00
25430;BME280;13360;48.152;-1.788;2023-04-10T03:56:33;102300.03;;;13.88;100.00
25430;BME280;13360;48.152;-1.788;2023-04-10T03:58:58;102319.47;;;13.88;100.00
25430;BME280;13360;48.152;-1.788;2023-04-10T04:01:24;102329.19;;;13.91;100.00
25430;BME280;13360;48.152;-1.788;2023-04-10T04:03:49;102356.66;;;13.92;100.00
25430;BME280;13360;48.152;-1.788;2023-04-10T04:06:14;102363.34;;;13.91;100.00
25430;BME280;13360;48.152;-1.788;2023-04-10T04:08:39;102399.47;;;13.86;100.00
25430;BME280;13360;48.152;-1.788;2023-04-10T04:11:05;102419.47;;;13.88;100.00
25430;BME280;13360;48.152;-1.788;2023-04-10T04:13:30;102434.72;;;13.91;100.00
25430;BME280;13360;48.152;-1.788;2023-04-10T04:15:55;102430.56;;;13.88;100.00
25430;BME280;13360;48.152;-1.788;2023-04-10T04:18:20;102443.34;;;13.89;100.00
25430;BME280;13360;48.152;-1.788;2023-04-10T04:20:46;102471.69;;;13.86;100.00
25430;BME280;13360;48.152;-1.788;2023-04-10T04:23:11;102493.06;;;13.86;100.00
25430;BME280;13360;48.152;-1.788;2023-04-10T04:25:36;102523.91;;;13.84;100.00
25430;BME280;13360;48.152;-1.788;2023-04-10T04:28:01;102550.56;;;13.80;100.00
25430;BME280;13360;48.152;-1.788;2023-04-10T04:30:26;102560.28;;;13.83;100.00
25430;BME280;13360;48.152;-1.788;2023-04-10T04:32:52;102581.13;;;13.85;100.00
25430;BME280;13360;48.152;-1.788;2023-04-10T04:35:17;102586.13;;;13.83;100.00
25430;BME280;13360;48.152;-1.788;2023-04-10T04:37:42;102596.69;;;13.86;100.00
25430;BME280;13360;48.152;-1.788;2023-04-10T04:40:07;102601.94;;;13.88;100.00
25430;BME280;13360;48.152;-1.788;2023-04-10T04:42:33;102609.47;;;13.87;100.00
25430;BME280;13360;48.152;-1.788;2023-04-10T04:44:58;102627.78;;;13.88;100.00
25430;BME280;13360;48.152;-1.788;2023-04-10T04:47:23;102616.69;;;13.88;100.00
25430;BME280;13360;48.152;-1.788;2023-04-10T04:49:48;102622.22;;;13.88;100.00
25430;BME280;13360;48.152;-1.788;2023-04-10T04:52:14;102622.22;;;13.83;100.00
25430;BME280;13360;48.152;-1.788;2023-04-10T04:54:39;102633.34;;;13.83;100.00
25430;BME280;13360;48.152;-1.788;2023-04-10T04:57:05;102639.44;;;13.80;100.00
25430;BME280;13360;48.152;-1.788;2023-04-10T04:59:31;102652.22;;;13.76;100.00
25430;BME280;13360;48.152;-1.788;2023-04-10T05:01:56;102651.38;;;13.76;100.00
25430;BME280;13360;48.152;-1.788;2023-04-10T05:04:21;102662.47;;;13.76;100.00
25430;BME280;13360;48.152;-1.788;2023-04-10T05:06:47;102671.66;;;13.76;100.00
25430;BME280;13360;48.152;-1.788;2023-04-10T05:09:12;102678.81;;;13.72;100.00
25430;BME280;13360;48.152;-1.788;2023-04-10T05:11:37;102697.16;;;13.73;100.00
25430;BME280;13360;48.152;-1.788;2023-04-10T05:14:02;102705.75;;;13.71;100.00
25430;BME280;13360;48.152;-1.788;2023-04-10T05:16:27;102724.94;;;13.73;100.00
25430;BME280;13360;48.152;-1.788;2023-04-10T05:18:53;102741.09;;;13.76;100.00
25430;BME280;13360;48.152;-1.788;2023-04-10T05:21:18;102763.31;;;13.76;100.00
25430;BME280;13360;48.152;-1.788;2023-04-10T05:23:44;102779.13;;;13.76;100.00
25430;BME280;13360;48.152;-1.788;2023-04-10T05:26:09;102791.03;;;13.71;100.00
25430;BME280;13360;48.152;-1.788;2023-04-10T05:28:34;102818.25;;;13.74;100.00
25430;BME280;13360;48.152;-1.788;2023-04-10T05:31:00;102834.91;;;13.74;100.00
25430;BME280;13360;48.152;-1.788;2023-04-10T05:33:25;102834.41;;;13.77;100.00
25430;BME280;13360;48.152;-1.788;2023-04-10T05:35:51;102837.75;;;13.79;100.00
25430;BME280;13360;48.152;-1.788;2023-04-10T05:38:17;102839.97;;;13.77;100.00
25430;BME280;13360;48.152;-1.788;2023-04-10T05:40:45;102849.16;;;13.83;100.00
25430;BME280;13360;48.152;-1.788;2023-04-10T05:43:11;102840.25;;;13.81;100.00
25430;BME280;13360;48.152;-1.788;2023-04-10T05:45:36;102853.88;;;13.82;100.00
25430;BME280;13360;48.152;-1.788;2023-04-10T05:48:01;102864.47;;;13.85;100.00
25430;BME280;13360;48.152;-1.788;2023-04-10T05:50:26;102874.44;;;13.81;100.00
25430;BME280;13360;48.152;-1.788;2023-04-10T05:52:52;102890.81;;;13.78;100.00
25430;BME280;13360;48.152;-1.788;2023-04-10T05:55:17;102894.97;;;13.80;100.00
25430;BME280;13360;48.152;-1.788;2023-04-10T05:57:42;102914.16;;;13.82;100.00
25430;BME280;13360;48.152;-1.788;2023-04-10T06:00:08;102924.72;;;13.85;100.00
25430;BME280;13360;48.152;-1.788;2023-04-10T06:02:33;102946.66;;;13.81;100.00
25430;BME280;13360;48.152;-1.788;2023-04-10T06:04:59;102946.91;;;13.80;100.00
25430;BME280;13360;48.152;-1.788;2023-04-10T06:07:24;102963.91;;;13.83;100.00
25430;BME280;13360;48.152;-1.788;2023-04-10T06:09:51;102973.59;;;13.81;100.00
25430;BME280;13360;48.152;-1.788;2023-04-10T06:12:16;102978.34;;;13.85;100.00
25430;BME280;13360;48.152;-1.788;2023-04-10T06:14:41;103000.31;;;13.87;100.00
25430;BME280;13360;48.152;-1.788;2023-04-10T06:17:06;103006.44;;;13.89;100.00
25430;BME280;13360;48.152;-1.788;2023-04-10T06:19:31;103030.56;;;13.83;100.00
25430;BME280;13360;48.152;-1.788;2023-04-10T06:21:57;103048.91;;;13.84;100.00
25430;BME280;13360;48.152;-1.788;2023-04-10T06:24:22;103064.19;;;13.87;100.00
25430;BME280;13360;48.152;-1.788;2023-04-10T06:26:47;103070.34;;;13.89;100.00
25430;BME280;13360;48.152;-1.788;2023-04-10T06:29:12;103075.63;;;13.90;100.00
25430;BME280;13360;48.152;-1.788;2023-04-10T06:31:38;103093.97;;;13.91;100.00
25430;BME280;13360;48.152;-1.788;2023-04-10T06:34:03;103107.88;;;13.91;100.00
25430;BME280;13360;48.152;-1.788;2023-04-10T06:36:28;103123.44;;;13.92;100.00
25430;BME280;13360;48.152;-1.788;2023-04-10T06:38:53;103150.63;;;13.90;100.00
25430;BME280;13360;48.152;-1.788;2023-04-10T06:41:19;103178.44;;;13.90;100.00
25430;BME280;13360;48.152;-1.788;2023-04-10T06:43:44;103189.53;;;13.90;100.00
25430;BME280;13360;48.152;-1.788;2023-04-10T06:46:10;103223.72;;;13.91;100.00
25430;BME280;13360;48.152;-1.788;2023-04-10T06:48:35;103251.25;;;13.92;100.00
25430;BME280;13360;48.152;-1.788;2023-04-10T06:51:01;103267.84;;;13.87;100.00
25430;BME280;13360;48.152;-1.788;2023-04-10T06:53:26;103289.03;;;13.93;100.00
25430;BME280;13360;48.152;-1.788;2023-04-10T06:55:51;103300.16;;;13.93;100.00
25430;BME280;13360;48.152;-1.788;2023-04-10T06:58:17;103315.72;;;13.94;100.00
25430;BME280;13360;48.152;-1.788;2023-04-10T07:00:42;103336.38;;;13.98;100.00
25430;BME280;13360;48.152;-1.788;2023-04-10T07:03:07;103334.75;;;14.02;100.00
25430;BME280;13360;48.152;-1.788;2023-04-10T07:05:32;103346.97;;;14.01;100.00
25430;BME280;13360;48.152;-1.788;2023-04-10T07:07:58;103367.00;;;14.03;100.00
25430;BME280;13360;48.152;-1.788;2023-04-10T07:10:23;103373.09;;;14.00;100.00
25430;BME280;13360;48.152;-1.788;2023-04-10T07:12:48;103391.19;;;14.03;100.00
25430;BME280;13360;48.152;-1.788;2023-04-10T07:15:14;103394.53;;;14.05;100.00
25430;BME280;13360;48.152;-1.788;2023-04-10T07:17:40;103407.84;;;14.03;100.00
25430;BME280;13360;48.152;-1.788;2023-04-10T07:20:05;103408.09;;;14.01;100.00
25430;BME280;13360;48.152;-1.788;2023-04-10T07:22:31;103422.59;;;14.03;100.00
25430;BME280;13360;48.152;-1.788;2023-04-10T07:24:56;103429.06;;;14.09;100.00
25430;BME280;13360;48.152;-1.788;2023-04-10T07:27:23;103427.63;;;14.07;100.00
25430;BME280;13360;48.152;-1.788;2023-04-10T07:29:49;103441.25;;;14.08;100.00
25430;BME280;13360;48.152;-1.788;2023-04-10T07:32:14;103445.47;;;14.11;100.00
25430;BME280;13360;48.152;-1.788;2023-04-10T07:34:40;103464.16;;;14.15;100.00
25430;BME280;13360;48.152;-1.788;2023-04-10T07:37:06;103441.19;;;14.03;100.00
25430;BME280;13360;48.152;-1.788;2023-04-10T07:39:31;103468.22;;;14.08;100.00
25430;BME280;13360;48.152;-1.788;2023-04-10T07:41:56;103487.25;;;14.16;100.00
25430;BME280;13360;48.152;-1.788;2023-04-10T07:44:21;103503.91;;;14.16;100.00
25430;BME280;13360;48.152;-1.788;2023-04-10T07:46:47;103524.25;;;14.16;100.00
25430;BME280;13360;48.152;-1.788;2023-04-10T07:49:12;103543.69;;;14.16;100.00
25430;BME280;13360;48.152;-1.788;2023-04-10T07:51:37;103569.56;;;14.17;100.00
25430;BME280;13360;48.152;-1.788;2023-04-10T07:54:03;103601.47;;;14.14;100.00
25430;BME280;13360;48.152;-1.788;2023-04-10T07:56:28;103631.19;;;14.14;100.00
25430;BME280;13360;48.152;-1.788;2023-04-10T07:58:57;103642.91;;;14.16;100.00
25430;BME280;13360;48.152;-1.788;2023-04-10T08:01:23;103672.41;;;14.17;100.00
25430;BME280;13360;48.152;-1.788;2023-04-10T08:03:48;103679.03;;;14.16;100.00
25430;BME280;13360;48.152;-1.788;2023-04-10T08:06:13;103712.03;;;14.24;100.00
25430;BME280;13360;48.152;-1.788;2023-04-10T08:08:39;103715.13;;;14.27;100.00
25430;BME280;13360;48.152;-1.788;2023-04-10T08:13:48;103728.03;;;14.33;100.00
25430;BME280;13360;48.152;-1.788;2023-04-10T08:16:16;103744.22;;;14.37;100.00
25430;BME280;13360;48.152;-1.788;2023-04-10T08:18:41;103765.63;;;14.36;100.00
25430;BME280;13360;48.152;-1.788;2023-04-10T08:21:06;103781.47;;;14.35;100.00
25430;BME280;13360;48.152;-1.788;2023-04-10T08:23:31;103784.34;;;14.41;100.00
25430;BME280;13360;48.152;-1.788;2023-04-10T08:25:57;103799.63;;;14.38;100.00
25430;BME280;13360;48.152;-1.788;2023-04-10T08:28:22;103827.41;;;14.38;100.00
25430;BME280;13360;48.152;-1.788;2023-04-10T08:30:47;103840.81;;;14.41;100.00
25430;BME280;13360;48.152;-1.788;2023-04-10T08:33:14;103846.50;;;14.46;100.00
25430;BME280;13360;48.152;-1.788;2023-04-10T08:35:39;103853.59;;;14.54;100.00
25430;BME280;13360;48.152;-1.788;2023-04-10T08:38:04;103862.28;;;14.57;100.00
25430;BME280;13360;48.152;-1.788;2023-04-10T08:40:30;103867.25;;;14.55;100.00
25430;BME280;13360;48.152;-1.788;2023-04-10T08:42:55;103881.16;;;14.55;100.00
25430;BME280;13360;48.152;-1.788;2023-04-10T08:45:20;103897.03;;;14.55;100.00
25430;BME280;13360;48.152;-1.788;2023-04-10T08:47:46;103902.97;;;14.58;100.00
25430;BME280;13360;48.152;-1.788;2023-04-10T08:50:12;103908.63;;;14.63;100.00
25430;BME280;13360;48.152;-1.788;2023-04-10T08:52:41;103910.16;;;14.71;100.00
25430;BME280;13360;48.152;-1.788;2023-04-10T08:55:07;103894.63;;;14.75;100.00
25430;BME280;13360;48.152;-1.788;2023-04-10T08:57:33;103916.06;;;14.75;100.00
25430;BME280;13360;48.152;-1.788;2023-04-10T09:00:00;103920.44;;;14.71;100.00
25430;BME280;13360;48.152;-1.788;2023-04-10T09:02:27;103919.09;;;14.73;100.00
25430;BME280;13360;48.152;-1.788;2023-04-10T09:04:52;103913.44;;;14.68;100.00
25430;BME280;13360;48.152;-1.788;2023-04-10T09:07:19;103913.94;;;14.65;100.00
25430;BME280;13360;48.152;-1.788;2023-04-10T09:09:45;103903.06;;;14.63;100.00
25430;BME280;13360;48.152;-1.788;2023-04-10T09:12:13;103911.91;;;14.60;100.00
25430;BME280;13360;48.152;-1.788;2023-04-10T09:14:39;103916.38;;;14.61;100.00
25430;BME280;13360;48.152;-1.788;2023-04-10T09:19:43;103909.22;;;14.66;100.00
25430;BME280;13360;48.152;-1.788;2023-04-10T09:22:09;103898.44;;;14.69;100.00
25430;BME280;13360;48.152;-1.788;2023-04-10T09:24:34;103880.38;;;14.72;100.00
25430;BME280;13360;48.152;-1.788;2023-04-10T09:27:01;103865.28;;;14.68;100.00
25430;BME280;13360;48.152;-1.788;2023-04-10T09:29:26;103855.34;;;14.72;100.00
25430;BME280;13360;48.152;-1.788;2023-04-10T09:32:02;103844.81;;;14.74;100.00
25430;BME280;13360;48.152;-1.788;2023-04-10T09:34:27;103821.78;;;14.78;100.00
25430;BME280;13360;48.152;-1.788;2023-04-10T09:36:53;103804.50;;;14.76;100.00
25430;BME280;13360;48.152;-1.788;2023-04-10T09:39:19;103777.78;;;14.75;100.00
25430;BME280;13360;48.152;-1.788;2023-04-10T09:44:15;103755.88;;;14.79;100.00
25430;BME280;13360;48.152;-1.788;2023-04-10T09:46:40;103756.94;;;14.78;100.00
25430;BME280;13360;48.152;-1.788;2023-04-10T09:49:06;103735.88;;;14.82;100.00
25430;BME280;13360;48.152;-1.788;2023-04-10T09:51:32;103723.06;;;14.81;100.00
25430;BME280;13360;48.152;-1.788;2023-04-10T09:54:01;103697.44;;;14.79;100.00
25430;BME280;13360;48.152;-1.788;2023-04-10T09:56:27;103683.09;;;14.87;100.00
25430;BME280;13360;48.152;-1.788;2023-04-10T09:58:53;103673.13;;;14.91;100.00
25430;BME280;13360;48.152;-1.788;2023-04-10T10:01:20;103665.69;;;14.97;100.00
25430;BME280;13360;48.152;-1.788;2023-04-10T10:03:46;103656.06;;;15.04;100.00
25430;BME280;13360;48.152;-1.788;2023-04-10T10:06:11;103629.59;;;15.02;100.00
25430;BME280;13360;48.152;-1.788;2023-04-10T10:08:36;103636.84;;;15.03;100.00
25430;BME280;13360;48.152;-1.788;2023-04-10T10:11:02;103624.94;;;15.07;100.00
25430;BME280;13360;48.152;-1.788;2023-04-10T10:20:56;103610.13;;;15.23;100.00
25430;BME280;13360;48.152;-1.788;2023-04-10T10:23:21;103596.78;;;15.25;100.00
25430;BME280;13360;48.152;-1.788;2023-04-10T10:25:47;103578.97;;;15.27;100.00
25430;BME280;13360;48.152;-1.788;2023-04-10T10:28:13;103581.47;;;15.28;100.00
25430;BME280;13360;48.152;-1.788;2023-04-10T10:30:38;103583.44;;;15.28;100.00
25430;BME280;13360;48.152;-1.788;2023-04-10T10:33:05;103581.28;;;15.35;100.00
25430;BME280;13360;48.152;-1.788;2023-04-10T10:35:31;103576.84;;;15.39;100.00
25430;BME280;13360;48.152;-1.788;2023-04-10T10:37:57;103577.66;;;15.34;100.00
25430;BME280;13360;48.152;-1.788;2023-04-10T10:43:13;103585.56;;;15.42;100.00
25430;BME280;13360;48.152;-1.788;2023-04-10T10:48:11;103608.47;;;15.49;100.00
25430;BME280;13360;48.152;-1.788;2023-04-10T10:53:39;103642.66;;;15.62;100.00
25430;BME280;13360;48.152;-1.788;2023-04-10T10:58:50;103690.59;;;15.64;100.00
25430;BME280;13360;48.152;-1.788;2023-04-10T11:01:16;103699.28;;;15.67;100.00
25430;BME280;13360;48.152;-1.788;2023-04-10T11:03:41;103683.09;;;15.64;100.00
25430;BME280;13360;48.152;-1.788;2023-04-10T11:06:09;103679.94;;;15.61;100.00
25430;BME280;13360;48.152;-1.788;2023-04-10T11:13:32;103685.66;;;15.71;100.00
25430;BME280;13360;48.152;-1.788;2023-04-10T11:15:58;103711.59;;;15.71;100.00
25430;BME280;13360;48.152;-1.788;2023-04-10T11:21:22;103787.78;;;15.82;100.00
25430;BME280;13360;48.152;-1.788;2023-04-10T11:31:29;103940.19;;;15.76;100.00
25430;BME280;13360;48.152;-1.788;2023-04-10T11:36:21;104032.41;;;16.08;100.00
25430;BME280;13360;48.152;-1.788;2023-04-10T11:41:18;104056.47;;;16.31;100.00
25430;BME280;13360;48.152;-1.788;2023-04-10T11:43:43;104046.25;;;16.37;100.00
25430;BME280;13360;48.152;-1.788;2023-04-10T11:46:08;104025.94;;;16.41;100.00
25430;BME280;13360;48.152;-1.788;2023-04-10T11:48:35;103973.06;;;16.52;100.00
25430;BME280;13360;48.152;-1.788;2023-04-10T11:51:10;103944.44;;;16.61;100.00
25430;BME280;13360;48.152;-1.788;2023-04-10T11:53:36;103881.78;;;16.69;100.00
25430;BME280;13360;48.152;-1.788;2023-04-10T11:56:01;103849.13;;;16.69;100.00
25430;BME280;13360;48.152;-1.788;2023-04-10T11:58:28;103834.16;;;16.81;100.00
25430;BME280;13360;48.152;-1.788;2023-04-10T12:00:56;103806.03;;;16.87;100.00
25430;BME280;13360;48.152;-1.788;2023-04-10T12:03:38;103753.84;;;16.93;100.00
25430;BME280;13360;48.152;-1.788;2023-04-10T12:06:05;103666.44;;;16.87;100.00
25430;BME280;13360;48.152;-1.788;2023-04-10T12:08:34;103629.81;;;16.84;100.00
25430;BME280;13360;48.152;-1.788;2023-04-10T12:10:59;103585.91;;;16.69;100.00
25430;BME280;13360;48.152;-1.788;2023-04-10T12:13:26;103521.34;;;16.55;100.00
25430;BME280;13360;48.152;-1.788;2023-04-10T12:15:51;103499.22;;;16.43;100.00
25430;BME280;13360;48.152;-1.788;2023-04-10T12:18:17;103474.34;;;16.37;100.00
25430;BME280;13360;48.152;-1.788;2023-04-10T12:20:43;103460.69;;;16.40;100.00
25430;BME280;13360;48.152;-1.788;2023-04-10T12:23:08;103538.91;;;16.56;100.00
25430;BME280;13360;48.152;-1.788;2023-04-10T12:25:34;103581.63;;;16.61;100.00
25430;BME280;13360;48.152;-1.788;2023-04-10T12:27:59;103628.94;;;16.73;100.00
25430;BME280;13360;48.152;-1.788;2023-04-10T12:30:25;103623.88;;;16.70;100.00
25430;BME280;13360;48.152;-1.788;2023-04-10T12:32:50;103576.97;;;16.67;100.00
25430;BME280;13360;48.152;-1.788;2023-04-10T12:35:19;103532.34;;;16.72;100.00
25430;BME280;13360;48.152;-1.788;2023-04-10T12:40:12;103503.06;;;16.74;100.00
25430;BME280;13360;48.152;-1.788;2023-04-10T12:42:41;103491.66;;;16.86;100.00
25430;BME280;13360;48.152;-1.788;2023-04-10T12:45:06;103482.47;;;16.96;100.00
25430;BME280;13360;48.152;-1.788;2023-04-10T12:47:48;103440.00;;;16.84;100.00
25430;BME280;13360;48.152;-1.788;2023-04-10T12:50:15;103419.31;;;16.80;100.00
25430;BME280;13360;48.152;-1.788;2023-04-10T12:52:42;103390.56;;;16.74;100.00
25430;BME280;13360;48.152;-1.788;2023-04-10T12:57:32;103350.59;;;16.63;100.00
25430;BME280;13360;48.152;-1.788;2023-04-10T12:59:58;103350.94;;;16.72;100.00
25430;BME280;13360;48.152;-1.788;2023-04-10T13:02:23;103343.13;;;16.79;100.00
25430;BME280;13360;48.152;-1.788;2023-04-10T13:04:48;103331.41;;;16.72;100.00
25430;BME280;13360;48.152;-1.788;2023-04-10T13:07:13;103261.84;;;16.60;100.00
25430;BME280;13360;48.152;-1.788;2023-04-10T13:09:39;103235.66;;;16.76;100.00
25430;BME280;13360;48.152;-1.788;2023-04-10T13:12:05;103208.59;;;16.97;100.00
25430;BME280;13360;48.152;-1.788;2023-04-10T13:14:30;103189.59;;;17.04;100.00
25430;BME280;13360;48.152;-1.788;2023-04-10T13:16:56;103147.72;;;16.99;100.00
25430;BME280;13360;48.152;-1.788;2023-04-10T13:19:21;103073.16;;;17.00;100.00
25430;BME280;13360;48.152;-1.788;2023-04-10T13:21:46;103017.88;;;17.02;100.00
25430;BME280;13360;48.152;-1.788;2023-04-10T13:24:12;102974.03;;;17.02;100.00
25430;BME280;13360;48.152;-1.788;2023-04-10T13:26:37;102928.31;;;16.93;100.00
25430;BME280;13360;48.152;-1.788;2023-04-10T13:29:02;102921.81;;;17.08;100.00
25430;BME280;13360;48.152;-1.788;2023-04-10T13:31:27;102914.50;;;17.17;100.00
25430;BME280;13360;48.152;-1.788;2023-04-10T13:33:53;102894.06;;;17.22;100.00
25430;BME280;13360;48.152;-1.788;2023-04-10T13:36:18;102843.22;;;17.25;100.00